Time;durP1;ratioP1;P1;durP2;ratioP2;P2;SDS_P1;SDS_P2;PMS_P1;PMS_P2;Temp;Humidity;BMP_temperature;BMP_pressure;BME280_temperature;BME280_humidity;BME280_pressure;Samples;Min_cycle;Max_cycle;Signal;HPM_P1;HPM_P2
2021/01/29 00:00:12;;;;;;;5.63;2.25;;;3.20;86.00;;;;;;5053039;28;20116;-69
2021/01/29 00:02:38;;;;;;;5.15;2.15;;;3.20;86.10;;;;;;5071381;28;20028;-68
2021/01/29 00:05:04;;;;;;;6.75;2.13;;;3.30;86.30;;;;;;5054910;28;20048;-68
2021/01/29 00:07:29;;;;;;;5.25;2.22;;;3.30;86.30;;;;;;5053734;28;20020;-69
2021/01/29 00:09:55;;;;;;;3.80;1.75;;;3.30;86.30;;;;;;5053092;28;20123;-68
2021/01/29 00:12:23;;;;;;;5.55;2.20;;;3.40;86.20;;;;;;5067965;28;20427;-68
2021/01/29 00:14:49;;;;;;;5.05;2.30;;;3.40;86.10;;;;;;5061237;28;20037;-68
2021/01/29 00:17:14;;;;;;;5.68;2.30;;;3.50;86.20;;;;;;5069142;28;20027;-68
2021/01/29 00:19:40;;;;;;;6.30;2.20;;;3.40;86.10;;;;;;5062969;28;20040;-68
2021/01/29 00:22:06;;;;;;;4.00;2.13;;;3.40;86.10;;;;;;5053722;28;20037;-68
2021/01/29 00:24:31;;;;;;;5.55;2.35;;;3.40;85.90;;;;;;5052366;28;20029;-69
2021/01/29 00:26:57;;;;;;;4.63;2.00;;;3.40;86.10;;;;;;5068853;28;20465;-68
2021/01/29 00:29:22;;;;;;;5.93;2.58;;;3.40;86.20;;;;;;5064956;28;20037;-68
2021/01/29 00:31:48;;;;;;;4.68;2.25;;;3.40;85.80;;;;;;5041002;28;20635;-68
2021/01/29 00:34:13;;;;;;;5.63;2.53;;;3.40;85.80;;;;;;5038276;28;20033;-69
2021/01/29 00:36:39;;;;;;;3.45;2.00;;;3.40;85.90;;;;;;5053297;28;20126;-67
2021/01/29 00:39:05;;;;;;;7.38;2.33;;;3.50;86.00;;;;;;5052648;28;20504;-68
2021/01/29 00:41:30;;;;;;;3.53;2.05;;;3.50;86.00;;;;;;5052855;28;20118;-68
2021/01/29 00:43:56;;;;;;;4.97;1.92;;;3.50;86.00;;;;;;5052523;28;20087;-68
2021/01/29 00:46:21;;;;;;;4.00;2.03;;;3.50;85.90;;;;;;5053245;28;20104;-69
2021/01/29 00:48:47;;;;;;;4.57;2.00;;;3.60;85.60;;;;;;5053578;28;20353;-68
2021/01/29 00:51:13;;;;;;;5.38;2.13;;;3.60;85.50;;;;;;5053249;28;20029;-67
2021/01/29 00:53:39;;;;;;;4.50;2.40;;;3.50;85.40;;;;;;5051703;28;20021;-69
2021/01/29 00:56:06;;;;;;;4.68;1.95;;;3.50;85.40;;;;;;5052533;28;20045;-68
2021/01/29 00:58:32;;;;;;;4.95;2.30;;;3.60;85.50;;;;;;5069206;28;20032;-68
2021/01/29 01:00:57;;;;;;;3.92;1.80;;;3.50;85.00;;;;;;5050717;28;20045;-68
2021/01/29 01:03:23;;;;;;;4.40;2.00;;;3.50;85.30;;;;;;5052875;28;20126;-69
2021/01/29 01:05:48;;;;;;;6.75;2.50;;;3.50;85.50;;;;;;5051589;28;20041;-68
2021/01/29 01:08:14;;;;;;;5.13;1.88;;;3.50;85.20;;;;;;5066331;28;20025;-68
2021/01/29 01:10:39;;;;;;;4.13;1.83;;;3.50;85.30;;;;;;5052832;28;20029;-68
2021/01/29 01:13:05;;;;;;;8.93;2.25;;;3.60;85.30;;;;;;5064850;28;20031;-68
2021/01/29 01:15:30;;;;;;;3.72;1.70;;;3.60;85.20;;;;;;5055116;28;20384;-68
2021/01/29 01:17:59;;;;;;;4.07;2.03;;;3.60;85.20;;;;;;5052534;28;20017;-68
2021/01/29 01:20:28;;;;;;;3.28;1.90;;;3.50;85.00;;;;;;5056543;28;20040;-68
2021/01/29 01:22:54;;;;;;;4.05;2.00;;;3.50;85.10;;;;;;5064594;28;20033;-68
2021/01/29 01:25:20;;;;;;;4.53;2.08;;;3.50;85.20;;;;;;5048019;28;20025;-68
2021/01/29 01:27:45;;;;;;;8.20;1.83;;;3.50;85.30;;;;;;5051632;28;20044;-68
2021/01/29 01:30:18;;;;;;;4.70;1.77;;;3.50;85.10;;;;;;5058275;28;20074;-68
2021/01/29 01:32:44;;;;;;;3.08;1.85;;;3.50;85.10;;;;;;5072159;28;20074;-68
2021/01/29 01:35:10;;;;;;;4.40;1.70;;;3.50;84.80;;;;;;5057270;28;20033;-67
2021/01/29 01:37:35;;;;;;;3.35;1.65;;;3.50;84.90;;;;;;5051980;28;20546;-67
2021/01/29 01:40:02;;;;;;;4.05;1.63;;;3.60;85.00;;;;;;5049630;28;20036;-68
2021/01/29 01:42:27;;;;;;;5.63;1.70;;;3.60;85.10;;;;;;5052280;28;20070;-68
2021/01/29 01:44:53;;;;;;;3.40;1.83;;;3.60;85.00;;;;;;5051283;28;20033;-68
2021/01/29 01:47:38;;;;;;;4.63;1.88;;;3.60;84.90;;;;;;5052100;28;20024;-68
2021/01/29 01:50:23;;;;;;;5.95;1.77;;;3.70;84.90;;;;;;5056990;28;20056;-68
2021/01/29 01:52:49;;;;;;;2.95;1.60;;;3.70;84.90;;;;;;5070227;28;20032;-68
2021/01/29 01:55:24;;;;;;;4.55;1.70;;;3.70;84.60;;;;;;5054514;28;20029;-68
2021/01/29 01:57:54;;;;;;;3.17;1.80;;;3.70;84.10;;;;;;5052659;28;20115;-68
2021/01/29 02:00:24;;;;;;;3.35;1.85;;;3.60;84.00;;;;;;5054655;28;20049;-67
2021/01/29 02:02:55;;;;;;;4.43;1.63;;;3.60;84.50;;;;;;5054163;28;20083;-67
2021/01/29 02:05:30;;;;;;;5.60;2.28;;;3.60;84.20;;;;;;5055241;28;20036;-68
2021/01/29 02:07:58;;;;;;;5.07;1.52;;;3.50;84.50;;;;;;5051430;28;20104;-67
2021/01/29 02:10:25;;;;;;;5.05;1.70;;;3.50;84.60;;;;;;5050550;28;20037;-67
2021/01/29 02:12:51;;;;;;;5.47;1.90;;;3.50;84.60;;;;;;5053293;28;20021;-67
2021/01/29 02:15:19;;;;;;;4.57;2.22;;;3.60;84.80;;;;;;5055568;28;20485;-67
2021/01/29 02:18:01;;;;;;;3.22;1.83;;;3.60;84.90;;;;;;5054958;28;20012;-67
2021/01/29 02:20:39;;;;;;;5.28;2.08;;;3.60;85.00;;;;;;5049832;28;20505;-67
2021/01/29 02:23:46;;;;;;;7.65;1.83;;;3.60;85.10;;;;;;5057633;28;20032;-67
2021/01/29 02:26:49;;;;;;;3.33;1.77;;;3.50;85.20;;;;;;5010752;28;20446;-68
2021/01/29 02:29:15;;;;;;;4.03;1.50;;;3.40;84.20;;;;;;5048191;28;20032;-68
2021/01/29 02:31:59;;;;;;;4.43;1.90;;;3.40;84.90;;;;;;5051220;28;20132;-68
2021/01/29 02:34:48;;;;;;;5.07;1.73;;;3.40;85.20;;;;;;5037617;28;20033;-68
2021/01/29 02:37:38;;;;;;;4.53;1.70;;;3.40;85.20;;;;;;5052551;28;20255;-68
2021/01/29 02:40:21;;;;;;;5.40;1.92;;;3.40;85.40;;;;;;5055424;28;20072;-68
2021/01/29 02:43:11;;;;;;;8.73;3.13;;;3.30;85.00;;;;;;5051138;28;20486;-68
2021/01/29 02:45:46;;;;;;;5.93;2.70;;;3.30;85.00;;;;;;5049560;28;20025;-68
2021/01/29 02:48:30;;;;;;;6.80;2.28;;;3.20;85.30;;;;;;5050559;28;20420;-68
2021/01/29 02:51:23;;;;;;;5.00;2.05;;;3.20;85.60;;;;;;5031444;28;20034;-68
2021/01/29 02:53:57;;;;;;;3.42;1.92;;;3.20;85.20;;;;;;5054216;28;20408;-68
2021/01/29 02:56:47;;;;;;;3.70;1.92;;;3.10;85.50;;;;;;5051023;28;20179;-68
2021/01/29 02:59:32;;;;;;;5.93;2.00;;;3.10;85.90;;;;;;5060655;28;20657;-68
2021/01/29 03:02:03;;;;;;;5.70;2.30;;;3.10;85.60;;;;;;5051902;28;20040;-68
2021/01/29 03:04:39;;;;;;;7.85;2.75;;;3.10;85.50;;;;;;5058256;28;20029;-68
2021/01/29 03:07:17;;;;;;;3.42;2.17;;;3.10;85.70;;;;;;5051373;28;20021;-67
2021/01/29 03:09:56;;;;;;;3.95;1.92;;;3.10;85.60;;;;;;5049734;28;20029;-68
2021/01/29 03:12:37;;;;;;;4.13;1.70;;;3.10;85.80;;;;;;5050965;28;20029;-68
2021/01/29 03:15:07;;;;;;;4.78;2.05;;;3.10;85.70;;;;;;5049604;28;20056;-68
2021/01/29 03:17:41;;;;;;;6.20;1.90;;;3.10;85.90;;;;;;5051107;28;20029;-68
2021/01/29 03:20:11;;;;;;;3.72;2.00;;;3.00;85.80;;;;;;5050077;28;20037;-68
2021/01/29 03:22:50;;;;;;;5.95;1.90;;;3.00;85.90;;;;;;5070343;28;20033;-68
2021/01/29 03:25:30;;;;;;;5.18;1.90;;;3.00;85.90;;;;;;5053028;28;20071;-68
2021/01/29 03:28:07;;;;;;;5.72;2.45;;;3.10;85.90;;;;;;5030824;28;20064;-68
2021/01/29 03:30:37;;;;;;;4.13;1.83;;;3.10;86.00;;;;;;5054545;28;20124;-68
2021/01/29 03:33:05;;;;;;;7.00;1.90;;;3.10;85.80;;;;;;5061145;28;20009;-68
2021/01/29 03:35:39;;;;;;;5.38;2.20;;;3.00;86.00;;;;;;5049152;28;20029;-68
2021/01/29 03:38:18;;;;;;;3.92;2.10;;;3.00;86.00;;;;;;5050976;28;20104;-68
2021/01/29 03:40:52;;;;;;;5.00;1.85;;;2.90;85.80;;;;;;5048951;28;20041;-68
2021/01/29 03:43:29;;;;;;;4.20;2.30;;;2.90;85.80;;;;;;5049986;28;20138;-68
2021/01/29 03:46:16;;;;;;;4.95;2.30;;;2.90;86.10;;;;;;5050423;28;20033;-68
2021/01/29 03:49:02;;;;;;;7.85;2.08;;;2.90;86.20;;;;;;5053010;28;20043;-68
2021/01/29 03:51:41;;;;;;;5.45;2.17;;;2.90;86.10;;;;;;5054466;28;20036;-68
2021/01/29 03:54:15;;;;;;;5.43;1.95;;;2.90;85.90;;;;;;5052914;28;20100;-68
2021/01/29 03:57:02;;;;;;;4.37;2.07;;;2.80;86.10;;;;;;5053876;28;20049;-68
2021/01/29 03:59:50;;;;;;;6.28;2.55;;;2.80;86.20;;;;;;5052984;28;20041;-68
2021/01/29 04:02:24;;;;;;;5.70;1.80;;;2.80;86.30;;;;;;5053606;28;20037;-68
2021/01/29 04:05:05;;;;;;;4.72;1.80;;;2.70;86.60;;;;;;5052966;28;20074;-68
2021/01/29 04:07:53;;;;;;;5.60;2.10;;;2.70;86.70;;;;;;5066458;28;20041;-68
2021/01/29 04:10:21;;;;;;;9.40;2.30;;;2.70;86.90;;;;;;5054023;28;20029;-68
2021/01/29 04:12:59;;;;;;;6.47;2.28;;;2.80;86.90;;;;;;5053713;28;20036;-68
2021/01/29 04:15:43;;;;;;;3.42;2.08;;;2.70;86.90;;;;;;5051720;28;20035;-68
2021/01/29 04:18:19;;;;;;;3.53;1.90;;;2.70;86.80;;;;;;5068816;28;20059;-68
2021/01/29 04:21:04;;;;;;;5.57;2.38;;;2.70;86.90;;;;;;5050890;28;20299;-68
2021/01/29 04:23:41;;;;;;;3.13;1.90;;;2.60;87.00;;;;;;5068837;28;20033;-68
2021/01/29 04:26:13;;;;;;;5.90;2.15;;;2.50;86.90;;;;;;5060106;28;20515;-68
2021/01/29 04:28:44;;;;;;;5.07;1.98;;;2.50;87.10;;;;;;5064002;28;20036;-68
2021/01/29 04:31:13;;;;;;;5.93;2.75;;;2.40;87.30;;;;;;5053526;28;20152;-68
2021/01/29 04:33:44;;;;;;;4.65;2.40;;;2.40;87.60;;;;;;5052000;28;20163;-68
2021/01/29 04:36:14;;;;;;;5.53;2.25;;;2.40;87.60;;;;;;5072218;28;20047;-68
2021/01/29 04:38:50;;;;;;;3.90;1.95;;;2.30;87.80;;;;;;5068612;28;20028;-68
2021/01/29 04:41:31;;;;;;;4.38;2.22;;;2.30;88.00;;;;;;5052410;28;20048;-68
2021/01/29 04:44:16;;;;;;;7.90;2.70;;;2.20;88.00;;;;;;5058984;28;20025;-68
2021/01/29 04:47:14;;;;;;;6.22;2.55;;;2.30;88.40;;;;;;5053245;28;20036;-67
2021/01/29 04:49:45;;;;;;;4.15;2.30;;;2.20;88.30;;;;;;5052649;28;20037;-68
2021/01/29 04:52:41;;;;;;;5.05;2.17;;;2.10;88.70;;;;;;5037110;28;20024;-67
2021/01/29 04:55:43;;;;;;;6.60;2.17;;;2.00;89.10;;;;;;5038184;28;20052;-67
2021/01/29 04:58:22;;;;;;;4.30;2.08;;;1.90;89.10;;;;;;5048415;28;20036;-68
2021/01/29 05:01:33;;;;;;;7.70;2.35;;;1.90;89.10;;;;;;5052707;28;20126;-67
2021/01/29 05:04:05;;;;;;;6.65;2.10;;;1.90;89.20;;;;;;5059059;28;20033;-68
2021/01/29 05:06:43;;;;;;;4.60;2.33;;;1.80;89.30;;;;;;5052558;28;20033;-67
2021/01/29 05:09:26;;;;;;;6.05;2.03;;;1.80;89.90;;;;;;5051309;28;20094;-67
2021/01/29 05:12:12;;;;;;;5.90;2.47;;;1.80;89.80;;;;;;5052768;28;20116;-68
2021/01/29 05:15:12;;;;;;;3.33;2.00;;;1.70;90.00;;;;;;5043996;28;20025;-67
2021/01/29 05:17:55;;;;;;;7.50;2.38;;;1.60;90.00;;;;;;5057961;28;20028;-67
2021/01/29 05:20:39;;;;;;;4.82;2.60;;;1.60;90.10;;;;;;5053074;28;20489;-67
2021/01/29 05:23:38;;;;;;;6.97;3.45;;;1.60;90.10;;;;;;5052957;28;20362;-67
2021/01/29 05:26:28;;;;;;;5.00;2.58;;;1.50;90.10;;;;;;5046088;28;20037;-67
2021/01/29 05:29:23;;;;;;;4.63;2.38;;;1.60;90.20;;;;;;5048819;28;20049;-67
2021/01/29 05:32:25;;;;;;;6.22;2.80;;;1.50;90.30;;;;;;5049147;28;20044;-67
2021/01/29 05:35:21;;;;;;;6.13;2.30;;;1.50;90.40;;;;;;5050432;28;20384;-68
2021/01/29 05:38:11;;;;;;;4.25;2.38;;;1.50;90.30;;;;;;5040110;28;20122;-67
2021/01/29 05:41:04;;;;;;;7.88;2.55;;;1.50;90.30;;;;;;5051428;28;20036;-67
2021/01/29 05:43:56;;;;;;;5.30;2.45;;;1.50;90.30;;;;;;5049844;28;20031;-67
2021/01/29 05:46:34;;;;;;;4.53;2.20;;;1.60;90.30;;;;;;5063137;28;20400;-67
2021/01/29 05:49:41;;;;;;;6.45;2.42;;;1.60;90.40;;;;;;5063724;28;20029;-67
2021/01/29 05:52:50;;;;;;;6.25;2.50;;;1.60;90.40;;;;;;5030487;28;20473;-67
2021/01/29 05:55:45;;;;;;;5.57;2.30;;;1.70;90.40;;;;;;5040591;28;20141;-68
2021/01/29 05:58:32;;;;;;;6.60;2.40;;;1.70;90.50;;;;;;5051787;28;20421;-68
2021/01/29 06:01:41;;;;;;;6.28;2.30;;;1.80;90.50;;;;;;5061018;28;20043;-69
2021/01/29 06:04:30;;;;;;;4.90;2.20;;;1.80;90.50;;;;;;5058171;28;20557;-69
2021/01/29 06:07:29;;;;;;;3.80;2.10;;;1.80;90.50;;;;;;5068863;28;20072;-69
2021/01/29 06:10:42;;;;;;;4.80;2.47;;;1.90;90.60;;;;;;5047995;28;20421;-69
2021/01/29 06:13:26;;;;;;;6.03;2.95;;;1.90;90.70;;;;;;5032210;28;20069;-69
2021/01/29 06:16:19;;;;;;;7.65;2.60;;;1.90;90.70;;;;;;5058286;28;20477;-69
2021/01/29 06:19:26;;;;;;;4.85;2.38;;;1.90;90.60;;;;;;5065501;28;20017;-68
2021/01/29 06:22:07;;;;;;;8.27;3.08;;;1.90;90.60;;;;;;5051619;28;20489;-68
2021/01/29 06:25:05;;;;;;;8.43;3.00;;;1.90;90.70;;;;;;5049452;28;20101;-68
2021/01/29 06:27:48;;;;;;;6.28;2.55;;;1.90;90.80;;;;;;5031329;28;20509;-68
2021/01/29 06:30:30;;;;;;;3.78;2.53;;;1.80;90.70;;;;;;5047687;28;20088;-68
2021/01/29 06:33:13;;;;;;;6.95;2.90;;;1.90;90.80;;;;;;5050172;28;20469;-67
2021/01/29 06:36:01;;;;;;;6.68;2.88;;;1.90;90.80;;;;;;5050631;28;20048;-68
2021/01/29 06:38:52;;;;;;;4.28;2.60;;;1.90;90.80;;;;;;5060143;28;20029;-67
2021/01/29 06:41:32;;;;;;;7.10;3.22;;;1.90;90.80;;;;;;5051406;28;20040;-68
2021/01/29 06:44:22;;;;;;;6.38;2.75;;;1.90;90.80;;;;;;5050486;28;20021;-67
2021/01/29 06:47:08;;;;;;;6.57;3.40;;;2.00;90.90;;;;;;5051756;28;20071;-67
2021/01/29 06:50:11;;;;;;;6.60;3.70;;;2.00;90.90;;;;;;5058999;28;20040;-68
2021/01/29 06:53:01;;;;;;;8.63;3.05;;;2.00;90.90;;;;;;5031269;28;20061;-67
2021/01/29 06:55:59;;;;;;;6.70;3.17;;;2.00;90.90;;;;;;5049533;28;20045;-72
2021/01/29 06:58:55;;;;;;;5.97;2.92;;;2.00;91.00;;;;;;5050387;28;20033;-67
2021/01/29 07:01:42;;;;;;;4.90;3.05;;;2.00;91.00;;;;;;5063021;28;20549;-68
2021/01/29 07:04:26;;;;;;;7.38;3.30;;;2.00;91.00;;;;;;5062521;28;20036;-67
2021/01/29 07:07:20;;;;;;;7.20;2.60;;;2.00;91.00;;;;;;5059699;28;20027;-68
2021/01/29 07:10:12;;;;;;;6.15;2.70;;;2.00;91.10;;;;;;5041904;28;20151;-67
2021/01/29 07:12:54;;;;;;;5.43;2.88;;;2.00;91.10;;;;;;5039181;28;20033;-67
2021/01/29 07:15:44;;;;;;;10.55;2.80;;;2.00;91.10;;;;;;5051172;28;20032;-66
2021/01/29 07:18:31;;;;;;;8.90;3.65;;;2.10;91.10;;;;;;5050640;28;20044;-67
2021/01/29 07:21:36;;;;;;;6.32;2.33;;;2.10;91.20;;;;;;5036393;28;20133;-67
2021/01/29 07:24:26;;;;;;;6.93;3.38;;;2.10;91.10;;;;;;5054437;28;20025;-68
2021/01/29 07:27:08;;;;;;;6.60;2.75;;;2.20;91.10;;;;;;5052171;28;20035;-68
2021/01/29 07:29:53;;;;;;;11.27;2.92;;;2.20;91.00;;;;;;5048142;28;20104;-66
2021/01/29 07:32:40;;;;;;;10.77;2.93;;;2.20;91.00;;;;;;5048804;28;20140;-67
2021/01/29 07:35:38;;;;;;;9.90;3.20;;;2.20;91.00;;;;;;5052570;28;20382;-66
2021/01/29 07:38:20;;;;;;;9.70;4.35;;;2.20;90.90;;;;;;5056754;28;20021;-67
2021/01/29 07:40:51;;;;;;;8.10;3.65;;;2.20;90.90;;;;;;5059976;28;20457;-66
2021/01/29 07:43:41;;;;;;;7.10;3.25;;;2.20;90.90;;;;;;5061598;28;20075;-67
2021/01/29 07:46:36;;;;;;;8.40;3.85;;;2.20;90.90;;;;;;5063644;28;20477;-67
2021/01/29 07:49:24;;;;;;;12.32;3.53;;;2.20;90.80;;;;;;5054199;28;20033;-67
2021/01/29 07:52:11;;;;;;;4.97;2.78;;;2.20;90.80;;;;;;5054153;28;20707;-66
2021/01/29 07:55:00;;;;;;;8.48;3.60;;;2.30;90.80;;;;;;5057639;28;20076;-65
2021/01/29 07:57:34;;;;;;;8.05;2.85;;;2.30;90.70;;;;;;5048398;28;20485;-65
2021/01/29 08:00:24;;;;;;;6.38;2.17;;;2.30;90.70;;;;;;5057431;28;20037;-65
2021/01/29 08:03:27;;;;;;;8.45;3.33;;;2.30;90.70;;;;;;5064561;28;20444;-65
2021/01/29 08:06:23;;;;;;;6.57;2.70;;;2.30;90.70;;;;;;5049346;28;20112;-65
2021/01/29 08:09:04;;;;;;;6.85;2.88;;;2.40;90.60;;;;;;5035783;28;20041;-65
2021/01/29 08:11:36;;;;;;;6.78;2.90;;;2.40;90.60;;;;;;5073260;28;20047;-65
2021/01/29 08:14:26;;;;;;;5.07;2.90;;;2.50;90.60;;;;;;5050711;28;20025;-65
2021/01/29 08:17:15;;;;;;;7.00;2.20;;;2.40;90.50;;;;;;5047869;28;20037;-65
2021/01/29 08:20:07;;;;;;;7.85;2.88;;;2.50;90.50;;;;;;5051057;28;20033;-66
2021/01/29 08:22:47;;;;;;;5.38;2.58;;;2.50;90.40;;;;;;5053753;28;20074;-66
2021/01/29 08:25:24;;;;;;;6.85;4.28;;;2.50;90.20;;;;;;5048689;28;20603;-66
2021/01/29 08:28:11;;;;;;;10.45;3.88;;;2.40;90.10;;;;;;5045068;28;20063;-65
2021/01/29 08:31:11;;;;;;;8.98;3.95;;;2.40;90.20;;;;;;5045931;28;20029;-64
2021/01/29 08:34:19;;;;;;;7.80;2.97;;;2.50;90.30;;;;;;5038412;28;20143;-64
2021/01/29 08:37:09;;;;;;;7.72;2.92;;;2.50;90.20;;;;;;5033736;28;20478;-65
2021/01/29 08:39:49;;;;;;;8.27;2.95;;;2.50;90.50;;;;;;5051753;28;20029;-65
2021/01/29 08:42:31;;;;;;;11.45;3.75;;;2.50;90.50;;;;;;5049284;28;20374;-65
2021/01/29 08:45:09;;;;;;;8.20;3.83;;;2.60;90.60;;;;;;5048831;28;20035;-65
2021/01/29 08:48:04;;;;;;;7.63;4.00;;;2.60;90.60;;;;;;5053496;28;20096;-65
2021/01/29 08:50:59;;;;;;;6.45;3.40;;;2.70;90.50;;;;;;5046094;28;20052;-65
2021/01/29 08:53:55;;;;;;;11.18;3.47;;;2.70;90.50;;;;;;5046335;28;20174;-65
2021/01/29 08:56:38;;;;;;;5.25;3.17;;;2.70;90.60;;;;;;5044123;28;20048;-65
2021/01/29 08:59:07;;;;;;;13.20;3.25;;;2.80;90.50;;;;;;5051507;28;20467;-65
2021/01/29 09:01:57;;;;;;;15.35;4.35;;;2.80;90.30;;;;;;5052151;28;20025;-65
2021/01/29 09:04:34;;;;;;;8.50;2.83;;;2.90;90.20;;;;;;5047098;28;20044;-65
2021/01/29 09:07:05;;;;;;;6.13;2.90;;;2.90;90.00;;;;;;5060114;28;20024;-65
2021/01/29 09:09:35;;;;;;;6.88;3.08;;;2.90;90.10;;;;;;5055575;28;20186;-65
2021/01/29 09:12:03;;;;;;;8.25;2.92;;;3.00;90.00;;;;;;5047452;28;20029;-64
2021/01/29 09:14:35;;;;;;;9.02;3.22;;;3.00;89.50;;;;;;5048198;28;20063;-65
2021/01/29 09:17:11;;;;;;;11.32;2.95;;;3.00;89.20;;;;;;5046184;28;20063;-65
2021/01/29 09:19:40;;;;;;;6.95;3.03;;;3.00;89.20;;;;;;5044487;28;20485;-65
2021/01/29 09:22:29;;;;;;;8.88;3.10;;;3.10;89.00;;;;;;5048453;28;20040;-65
2021/01/29 09:25:09;;;;;;;6.15;2.75;;;3.10;89.50;;;;;;5043215;28;20025;-65
2021/01/29 09:28:12;;;;;;;8.50;4.00;;;3.10;89.70;;;;;;5054825;28;20028;-67
2021/01/29 09:31:07;;;;;;;7.82;3.40;;;3.20;89.10;;;;;;5061984;28;20037;-66
2021/01/29 09:33:43;;;;;;;6.82;3.15;;;3.30;87.70;;;;;;5049590;28;20071;-66
2021/01/29 09:36:25;;;;;;;10.82;4.25;;;3.20;88.20;;;;;;5040427;28;20033;-65
2021/01/29 09:39:11;;;;;;;24.48;11.38;;;3.20;88.20;;;;;;5039689;28;20039;-67
2021/01/29 09:41:53;;;;;;;18.95;8.57;;;3.20;87.50;;;;;;5052217;28;20397;-65
2021/01/29 09:44:32;;;;;;;17.42;7.20;;;3.10;88.10;;;;;;5047874;28;20032;-67
2021/01/29 09:47:02;;;;;;;7.80;3.70;;;3.20;88.80;;;;;;5056703;28;20477;-65
2021/01/29 09:49:36;;;;;;;8.30;4.05;;;3.20;87.80;;;;;;5048421;28;20120;-66
2021/01/29 09:52:17;;;;;;;5.67;3.13;;;3.30;87.90;;;;;;5051524;28;20058;-67
2021/01/29 09:54:53;;;;;;;12.05;4.10;;;3.30;86.80;;;;;;5049205;28;20032;-66
2021/01/29 09:57:21;;;;;;;7.40;3.65;;;3.20;86.40;;;;;;5050292;28;20180;-67
2021/01/29 10:00:01;;;;;;;6.45;3.38;;;3.20;86.70;;;;;;5049519;28;20120;-67
2021/01/29 10:02:39;;;;;;;4.95;2.67;;;3.20;86.70;;;;;;5033512;28;20030;-67
2021/01/29 10:05:16;;;;;;;4.82;2.90;;;3.20;86.50;;;;;;5043100;28;20033;-68
2021/01/29 10:07:55;;;;;;;9.57;3.70;;;3.30;87.20;;;;;;5049027;28;20075;-66
2021/01/29 10:10:24;;;;;;;7.25;3.95;;;3.30;86.40;;;;;;5046084;28;20037;-67
2021/01/29 10:12:57;;;;;;;7.95;3.90;;;3.40;86.90;;;;;;5053917;28;20021;-67
2021/01/29 10:15:24;;;;;;;6.88;3.00;;;3.50;87.20;;;;;;5051418;28;20122;-67
2021/01/29 10:17:57;;;;;;;8.30;3.30;;;3.60;87.60;;;;;;5050214;28;20036;-67
2021/01/29 10:20:29;;;;;;;8.80;3.30;;;3.70;87.60;;;;;;5048885;28;20382;-68
2021/01/29 10:23:16;;;;;;;7.28;3.22;;;3.80;87.20;;;;;;5046424;28;20033;-68
2021/01/29 10:26:05;;;;;;;9.00;2.88;;;3.80;86.40;;;;;;5047784;28;20031;-68
2021/01/29 10:29:02;;;;;;;7.45;3.42;;;3.80;86.80;;;;;;5051779;28;20097;-68
2021/01/29 10:31:37;;;;;;;8.02;4.50;;;3.90;86.50;;;;;;5050859;28;20025;-68
2021/01/29 10:34:27;;;;;;;7.88;3.13;;;4.00;86.50;;;;;;5040700;28;20139;-67
2021/01/29 10:37:19;;;;;;;7.25;3.25;;;4.00;86.00;;;;;;5031409;28;20036;-67
2021/01/29 10:40:09;;;;;;;8.43;3.17;;;4.10;85.50;;;;;;5046917;28;20163;-67
2021/01/29 10:42:59;;;;;;;7.50;4.20;;;4.20;85.60;;;;;;5048690;28;20033;-68
2021/01/29 10:45:41;;;;;;;7.00;3.38;;;4.20;85.10;;;;;;5018237;28;20040;-68
2021/01/29 10:48:20;;;;;;;7.88;3.92;;;4.30;83.50;;;;;;5050866;28;20021;-68
2021/01/29 10:51:03;;;;;;;9.77;4.45;;;4.20;82.40;;;;;;5039697;28;20100;-68
2021/01/29 10:53:30;;;;;;;7.57;4.07;;;4.20;82.30;;;;;;5046072;28;20029;-69
2021/01/29 10:56:10;;;;;;;7.45;4.30;;;4.20;82.10;;;;;;5051852;28;20041;-68
2021/01/29 10:59:08;;;;;;;8.57;4.10;;;4.20;82.20;;;;;;5051837;28;20115;-69
2021/01/29 11:01:37;;;;;;;7.93;4.07;;;4.20;82.00;;;;;;5054295;28;20044;-68
2021/01/29 11:04:08;;;;;;;10.43;4.70;;;4.20;82.00;;;;;;5054939;28;20068;-68
2021/01/29 11:06:52;;;;;;;10.30;4.75;;;4.30;82.10;;;;;;5054819;28;20440;-69
2021/01/29 11:09:33;;;;;;;9.05;4.25;;;4.30;81.50;;;;;;5054908;28;20041;-69
2021/01/29 11:12:33;;;;;;;10.32;4.10;;;4.30;80.10;;;;;;5057511;28;20033;-68
2021/01/29 11:15:22;;;;;;;8.70;4.20;;;4.40;80.40;;;;;;5070561;28;20071;-70
2021/01/29 11:17:56;;;;;;;9.48;4.78;;;4.40;79.80;;;;;;5054433;28;20545;-70
2021/01/29 11:20:29;;;;;;;8.05;4.20;;;4.30;77.70;;;;;;5054797;28;20547;-70
2021/01/29 11:23:30;;;;;;;8.52;4.55;;;4.30;79.20;;;;;;5054695;28;20472;-69
2021/01/29 11:26:08;;;;;;;8.98;3.83;;;4.30;74.40;;;;;;5052238;28;20048;-67
2021/01/29 11:29:15;;;;;;;7.15;4.03;;;4.20;76.50;;;;;;5052638;28;20033;-68
2021/01/29 11:31:48;;;;;;;7.32;4.60;;;4.10;76.40;;;;;;5042425;28;20037;-70
2021/01/29 11:34:30;;;;;;;6.38;4.00;;;4.10;77.60;;;;;;5058341;28;20053;-68
2021/01/29 11:37:05;;;;;;;7.05;4.07;;;4.10;74.60;;;;;;5053868;28;20047;-69
2021/01/29 11:39:51;;;;;;;6.82;4.47;;;4.10;75.90;;;;;;5034215;28;20038;-69
2021/01/29 11:42:38;;;;;;;12.98;4.20;;;4.00;75.10;;;;;;5053770;28;20029;-69
2021/01/29 11:45:15;;;;;;;6.97;3.90;;;4.00;76.70;;;;;;5054749;28;20041;-69
2021/01/29 11:48:08;;;;;;;7.22;3.38;;;4.00;76.40;;;;;;5052115;28;20059;-69
2021/01/29 11:50:58;;;;;;;8.32;3.13;;;4.00;76.00;;;;;;5048311;28;20032;-69
2021/01/29 11:53:35;;;;;;;6.22;3.28;;;4.10;75.90;;;;;;5051691;28;20048;-69
2021/01/29 11:56:07;;;;;;;7.05;3.50;;;4.10;76.10;;;;;;5052178;28;20061;-69
2021/01/29 11:58:47;;;;;;;6.10;3.28;;;4.10;75.80;;;;;;5051141;28;20704;-70
2021/01/29 12:01:14;;;;;;;7.63;4.18;;;4.00;75.90;;;;;;5034318;28;20041;-68
2021/01/29 12:03:50;;;;;;;6.90;3.75;;;3.90;76.00;;;;;;5049958;28;20025;-69
2021/01/29 12:06:41;;;;;;;7.30;4.07;;;3.80;76.20;;;;;;5051876;28;20094;-70
2021/01/29 12:09:32;;;;;;;7.40;3.90;;;3.60;76.80;;;;;;5052169;28;20044;-69
2021/01/29 12:12:06;;;;;;;6.00;3.70;;;3.50;77.70;;;;;;5053020;28;20017;-70
2021/01/29 12:14:34;;;;;;;9.77;4.63;;;3.50;78.30;;;;;;5052932;28;20025;-70
2021/01/29 12:17:05;;;;;;;7.40;3.78;;;3.40;78.50;;;;;;5053665;28;20051;-69
2021/01/29 12:19:42;;;;;;;6.20;3.45;;;3.40;79.10;;;;;;5053560;28;20108;-69
2021/01/29 12:22:32;;;;;;;8.13;3.55;;;3.30;79.10;;;;;;5054019;28;20432;-70
2021/01/29 12:25:32;;;;;;;7.60;3.60;;;3.30;78.90;;;;;;5052747;28;20028;-69
2021/01/29 12:28:08;;;;;;;6.18;3.33;;;3.20;79.00;;;;;;5052241;28;20057;-69
2021/01/29 12:31:05;;;;;;;9.68;3.83;;;3.20;79.20;;;;;;5050475;28;20078;-69
2021/01/29 12:33:41;;;;;;;6.68;3.25;;;3.20;79.70;;;;;;5031621;28;20034;-69
2021/01/29 12:36:11;;;;;;;9.88;3.58;;;3.20;79.50;;;;;;5050871;28;20098;-69
2021/01/29 12:38:44;;;;;;;5.30;3.40;;;3.30;79.50;;;;;;5053367;28;20033;-69
2021/01/29 12:41:20;;;;;;;8.50;3.75;;;3.40;79.40;;;;;;5052970;28;20063;-69
2021/01/29 12:44:08;;;;;;;9.55;4.57;;;3.40;78.80;;;;;;5046930;28;20029;-69
2021/01/29 12:46:54;;;;;;;8.68;3.33;;;3.40;77.70;;;;;;5050985;28;20028;-69
2021/01/29 12:49:30;;;;;;;8.23;3.65;;;3.40;77.30;;;;;;5053110;28;20029;-69
2021/01/29 12:52:01;;;;;;;5.88;3.53;;;3.40;78.00;;;;;;5051977;28;20067;-69
2021/01/29 12:54:50;;;;;;;9.70;4.70;;;3.50;78.40;;;;;;5032036;28;20033;-69
2021/01/29 12:57:19;;;;;;;8.50;4.50;;;3.60;78.40;;;;;;5043257;28;20045;-69
2021/01/29 12:59:58;;;;;;;9.15;4.72;;;3.50;77.60;;;;;;5053111;28;20041;-69
2021/01/29 13:02:42;;;;;;;5.85;3.38;;;3.60;78.30;;;;;;5050418;28;20386;-69
2021/01/29 13:05:38;;;;;;;6.28;4.43;;;3.60;78.20;;;;;;5052895;28;20048;-69
2021/01/29 13:08:17;;;;;;;;;;;3.60;77.90;;;;;;5050854;28;20096;-69
2021/01/29 13:10:59;;;;;;;12.52;5.20;;;3.50;77.50;;;;;;5052085;28;19909;-71
2021/01/29 13:13:36;;;;;;;6.32;3.42;;;3.50;77.00;;;;;;5042952;28;20025;-67
2021/01/29 13:16:23;;;;;;;10.88;4.03;;;3.40;76.40;;;;;;5047297;28;20075;-68
2021/01/29 13:18:49;;;;;;;6.57;3.72;;;3.40;77.20;;;;;;5049709;28;20108;-68
2021/01/29 13:21:46;;;;;;;7.43;3.42;;;3.40;76.70;;;;;;5052911;28;20174;-68
2021/01/29 13:24:33;;;;;;;11.55;4.90;;;3.40;76.60;;;;;;5046804;28;20045;-68
2021/01/29 13:27:15;;;;;;;8.43;4.28;;;3.40;77.30;;;;;;5033465;28;20029;-69
2021/01/29 13:29:40;;;;;;;9.38;4.40;;;3.40;76.30;;;;;;5055257;28;20037;-69
2021/01/29 13:32:35;;;;;;;8.30;4.13;;;3.40;76.30;;;;;;5051792;28;20155;-69
2021/01/29 13:35:09;;;;;;;11.15;4.82;;;3.40;76.90;;;;;;5047982;28;20024;-70
2021/01/29 13:37:36;;;;;;;7.10;4.40;;;3.40;77.10;;;;;;5062821;28;20032;-69
2021/01/29 13:40:27;;;;;;;9.00;4.70;;;3.40;77.20;;;;;;5050236;28;20033;-69
2021/01/29 13:42:55;;;;;;;9.38;4.38;;;3.50;77.40;;;;;;5045054;28;20044;-70
2021/01/29 13:45:31;;;;;;;9.68;5.00;;;3.50;77.00;;;;;;5049916;28;20036;-69
2021/01/29 13:48:07;;;;;;;10.18;4.55;;;3.60;76.60;;;;;;5071927;28;20048;-69
2021/01/29 13:50:47;;;;;;;13.05;4.40;;;3.50;75.90;;;;;;5050449;28;20021;-69
2021/01/29 13:53:14;;;;;;;9.55;4.97;;;3.50;76.20;;;;;;5046475;28;20053;-69
2021/01/29 13:55:54;;;;;;;7.07;3.97;;;3.50;76.80;;;;;;5042780;28;20072;-68
2021/01/29 13:58:29;;;;;;;12.88;5.40;;;3.50;76.40;;;;;;5064468;28;20064;-68
2021/01/29 14:01:02;;;;;;;7.53;4.25;;;3.40;75.40;;;;;;5058920;28;20131;-67
2021/01/29 14:03:53;;;;;;;7.68;3.67;;;3.40;75.70;;;;;;5052132;28;20029;-69